• Join FlightAware (Why Join?)
  • Login
  • US Flag 
08:37AM EDT


 

Airport Tracker/Info


-or-


 

Live Flight TrackerFlight Track Log ✈ N524NK ✈ 21-Apr-2013 ✈ KMSY - KDFW

Flight Track Log - Related Links

Times and Time Zones

All times are in EDT time to prevent confusion due to time zone crossing. See the N524NK flight status page for this flight to view local times or setup timezone preferences in your user account.

Time Position Orientation Groundspeed Altitude Reporting Facility
EDT Latitude Longitude Course Direction KTS MPH feet Rate Location/Type
04:09PM 30.0270 -90.2400 10° North 172 198 1,400  Level FlightAware
04:09PM 30.0560 -90.2340 10° North 184 212 1,700 1,920 Climbing FlightAware
04:09PM 30.0750 -90.2290 13° North 237 273 3,000 3,480 Climbing FlightAware
04:10PM 30.1120 -90.2290 360° North 257 296 4,600 3,060 Climbing FlightAware
04:10PM 30.1240 -90.2390 324° Northwest 266 306 5,300 3,840 Climbing FlightAware
04:10PM 30.1320 -90.2550 300° West 269 310 6,200 1,320 Climbing FlightAware
04:11PM 30.1430 -90.2870 292° West 269 310 6,200 2,880 Level FlightAware
04:12PM 30.1370 -90.4120 267° West 324 373 11,000 2,580 Climbing FlightAware
04:13PM 30.1430 -90.4640 278° West 324 373 11,000  Level FlightAware
04:13PM 30.1510 -90.5370 277° West 324 373 11,000  Level FlightAware
04:14PM 30.1550 -90.5810 276° West 324 373 11,000 5,040 Level FlightAware
04:15PM 30.2792 -90.6775 276° West 339 390 18,900 4,740 Climbing Houston Center
04:16PM 30.3353 -90.7661 306° West 340 391 21,000 1,920 Climbing Houston Center
04:17PM 30.3936 -90.8583 306° West 352 405 22,900 1,740 Climbing Houston Center
04:18PM 30.4436 -90.9603 300° West 364 419 24,700 1,980 Climbing Houston Center
04:19PM 30.5022 -91.0839 299° West 365 420 27,000 1,800 Climbing Houston Center
04:20PM 30.5525 -91.1883 299° West 368 423 28,500 1,380 Climbing Houston Center
04:21PM 30.6006 -91.2944 298° West 371 427 29,900 900 Climbing Houston Center
04:22PM 30.6506 -91.3989 299° West 369 425 30,400 960 Climbing Houston Center
04:23PM 30.7081 -91.5217 299° West 370 426 31,900 1,380 Climbing Houston Center
04:24PM 30.7583 -91.6267 299° West 370 426 33,300 960 Climbing Houston Center
04:25PM 30.8056 -91.7314 298° West 367 422 34,000 300 Climbing Houston Center
04:26PM 30.8547 -91.8342 299° West 364 419 34,000  Level Houston Center
04:27PM 30.9025 -91.9386 298° West 364 419 34,000 120 Level Houston Center
04:33PM 31.1929 -92.5732 298° West 361 415 35,000 120 Climbing FlightAware ADS-B
04:34PM 31.2177 -92.6287 298° West 360 414 35,000  Level FlightAware ADS-B
04:35PM 31.2455 -92.6901 298° West 360 414 35,000 540 Level FlightAware ADS-B
04:35PM 31.2912 -92.7890 298° West 361 415 35,900 1,080 Climbing FlightAware ADS-B
04:36PM 31.3205 -92.8544 298° West 359 413 36,800 1,260 Climbing FlightAware ADS-B
04:37PM 31.3440 -92.9073 297° West 348 400 37,400 900 Climbing FlightAware ADS-B
04:37PM 31.3694 -92.9644 298° West 348 400 37,800 540 Climbing FlightAware ADS-B
04:38PM 31.3921 -93.0153 298° West 355 409 38,000 180 Climbing FlightAware ADS-B
04:38PM 31.4158 -93.0685 298° West 357 411 38,000  Level FlightAware ADS-B
04:39PM 31.4714 -93.1928 298° West 358 412 38,000  Level FlightAware ADS-B
04:43PM 31.6121 -93.5091 298° West 341 392 38,000  Level FlightAware ADS-B
04:43PM 31.6342 -93.5594 297° West 341 392 38,000  Level FlightAware ADS-B
04:44PM 31.6635 -93.6261 297° West 343 395 38,000  Level FlightAware ADS-B
04:45PM 31.6959 -93.7003 297° West 344 396 38,000  Level FlightAware ADS-B
04:45PM 31.7178 -93.7502 297° West 344 396 38,000  Level FlightAware ADS-B
04:46PM 31.7403 -93.8013 297° West 345 397 38,000  Level FlightAware ADS-B
04:46PM 31.7458 -93.8142 297° West 346 398 38,000  Level FlightAware ADS-B
04:46PM 31.7517 -93.8344 289° West 346 398 38,000  Level FlightAware ADS-B
04:47PM 31.7654 -93.9070 283° West 348 400 38,000  Level FlightAware ADS-B
04:47PM 31.7764 -93.9623 283° West 349 402 38,000  Level FlightAware ADS-B
04:48PM 31.7887 -94.0229 283° West 349 402 38,000  Level FlightAware ADS-B
04:48PM 31.7999 -94.0788 283° West 348 400 38,000  Level FlightAware ADS-B
04:49PM 31.8111 -94.1379 283° West 349 402 38,000  Level FlightAware ADS-B
04:49PM 31.8224 -94.1959 283° West 349 402 38,000  Level FlightAware ADS-B
04:50PM 31.8333 -94.2526 283° West 350 403 38,000  Level FlightAware ADS-B
04:50PM 31.8443 -94.3091 283° West 350 403 38,000  Level FlightAware ADS-B
04:50PM 31.8447 -94.3111 283° West 350 403 38,000  Level FlightAware ADS-B
04:51PM 31.8554 -94.3667 283° West 351 404 38,000  Level FlightAware ADS-B
04:51PM 31.8558 -94.3686 284° West 351 404 38,000  Level FlightAware ADS-B
04:51PM 31.8666 -94.4251 283° West 351 404 38,000  Level FlightAware ADS-B
04:51PM 31.8677 -94.4307 283° West 351 404 38,000  Level FlightAware ADS-B
04:52PM 31.8777 -94.4825 283° West 351 404 38,000  Level FlightAware ADS-B
04:52PM 31.8798 -94.4931 283° West 351 404 38,000  Level FlightAware ADS-B
04:52PM 31.8893 -94.5416 283° West 351 404 38,000  Level FlightAware ADS-B
04:52PM 31.8908 -94.5493 283° West 351 404 38,000  Level FlightAware ADS-B
04:53PM 31.9018 -94.6074 283° West 352 405 38,000  Level FlightAware ADS-B
04:53PM 31.9026 -94.6114 283° West 352 405 38,000  Level FlightAware ADS-B
04:53PM 31.9126 -94.6643 283° West 353 406 38,000  Level FlightAware ADS-B
04:53PM 31.9144 -94.6734 283° West 353 406 38,000  Level FlightAware ADS-B
04:54PM 31.9236 -94.7215 283° West 354 407 38,000  Level FlightAware ADS-B
04:54PM 31.9253 -94.7304 283° West 354 407 38,000  Level FlightAware ADS-B
04:54PM 31.9364 -94.7900 282° West 355 409 38,000  Level FlightAware ADS-B
04:55PM 31.9410 -94.8143 283° West 356 410 38,000  Level FlightAware ADS-B
04:55PM 31.9472 -94.8469 283° West 356 410 38,000  Level FlightAware ADS-B
04:55PM 31.9521 -94.8720 283° West 357 411 38,000  Level FlightAware ADS-B
04:55PM 31.9577 -94.9016 283° West 357 411 38,000  Level FlightAware ADS-B
04:56PM 31.9629 -94.9293 282° West 358 412 38,000  Level FlightAware ADS-B
04:56PM 31.9686 -94.9587 283° West 359 413 38,000  Level FlightAware ADS-B
04:56PM 31.9741 -94.9873 283° West 359 413 38,000  Level FlightAware ADS-B
04:57PM 31.9822 -95.0298 283° West 359 413 38,000  Level FlightAware ADS-B
04:57PM 31.9861 -95.0512 282° West 359 413 38,000  Level FlightAware ADS-B
04:57PM 31.9930 -95.0886 282° West 359 413 38,000  Level FlightAware ADS-B
04:57PM 31.9968 -95.1097 282° West 359 413 38,000  Level FlightAware ADS-B
04:58PM 32.0043 -95.1511 282° West 358 412 38,000  Level FlightAware ADS-B
04:58PM 32.0075 -95.1681 283° West 358 412 38,000  Level FlightAware ADS-B
04:58PM 32.0156 -95.2102 283° West 357 411 38,000 -240 Level FlightAware ADS-B
04:58PM 32.0184 -95.2253 282° West 357 411 37,900 -840 Descending FlightAware ADS-B
04:59PM 32.0264 -95.2677 283° West 352 405 37,600 -840 Descending FlightAware ADS-B
04:59PM 32.0292 -95.2824 283° West 350 403 37,500 -1,080 Descending FlightAware ADS-B
04:59PM 32.0383 -95.3319 282° West 351 404 37,000 -1,140 Descending FlightAware ADS-B
04:59PM 32.0401 -95.3413 283° West 352 405 36,900 -1,020 Descending FlightAware ADS-B
05:00PM 32.0492 -95.3907 282° West 357 411 36,500 -1,020 Descending FlightAware ADS-B
05:00PM 32.0511 -95.4010 282° West 357 411 36,400 -1,020 Descending FlightAware ADS-B
05:00PM 32.0597 -95.4484 282° West 360 414 36,000 -1,020 Descending FlightAware ADS-B
05:01PM 32.0704 -95.5072 282° West 362 417 35,500 -1,020 Descending FlightAware ADS-B
05:01PM 32.0811 -95.5655 282° West 364 419 35,000 -1,500 Descending FlightAware ADS-B
05:02PM 32.0904 -95.6240 281° West 367 422 34,000 -2,340 Descending FlightAware ADS-B
05:02PM 32.0992 -95.6801 281° West 367 422 32,700 -2,820 Descending FlightAware ADS-B
05:02PM 32.1005 -95.6878 281° West 367 422 32,500 -2,520 Descending FlightAware ADS-B
05:03PM 32.1100 -95.7467 281° West 365 420 31,300 -2,400 Descending FlightAware ADS-B
05:03PM 32.1146 -95.7755 281° West 365 420 30,700 -2,460 Descending FlightAware ADS-B
05:03PM 32.1200 -95.8087 281° West 360 414 30,000 -2,400 Descending FlightAware ADS-B
05:04PM 32.1254 -95.8418 281° West 359 413 29,300 -2,400 Descending FlightAware ADS-B
05:04PM 32.1366 -95.9109 281° West 354 407 27,900 -2,340 Descending FlightAware ADS-B
05:05PM 32.1482 -95.9841 281° West 349 402 26,400 -2,340 Descending FlightAware ADS-B
05:05PM 32.1577 -96.0430 281° West 344 396 25,200 -2,340 Descending FlightAware ADS-B
05:06PM 32.1668 -96.0999 281° West 342 394 24,000 -2,220 Descending FlightAware ADS-B
05:07PM 32.1760 -96.1590 280° West 338 389 22,800 -2,160 Descending FlightAware
05:07PM 32.1822 -96.1952 281° West 341 392 22,100 -2,340 Descending FlightAware ADS-B
05:07PM 32.1892 -96.2174 290° West 333 383 21,600 -2,280 Descending FlightAware ADS-B
05:07PM 32.1922 -96.2233 301° West 333 383 21,500 -2,040 Descending FlightAware ADS-B
05:07PM 32.2139 -96.2507 313° West 331 381 20,800 -1,980 Descending FlightAware ADS-B
05:08PM 32.2469 -96.2894 315° West 326 375 19,800 -1,980 Descending FlightAware ADS-B
05:08PM 32.2703 -96.3175 315° West 324 373 19,100 -2,040 Descending FlightAware ADS-B
05:09PM 32.3030 -96.3563 315° West 322 371 18,000 -2,160 Descending FlightAware ADS-B
05:10PM 32.3760 -96.4420 315° West 325 374 15,500 -2,100 Descending FlightAware
05:11PM 32.4180 -96.4920 315° West 321 369 14,200 -1,980 Descending FlightAware
05:11PM 32.4670 -96.5500 315° West 324 373 12,700 -1,920 Descending FlightAware
05:12PM 32.5090 -96.6000 315° West 318 366 11,500 -1,320 Descending FlightAware
05:13PM 32.5460 -96.6440 315° West 292 336 11,000 -540 Descending FlightAware
05:14PM 32.5890 -96.6950 315° West 283 326 10,800 -180 Descending FlightAware
05:14PM 32.6250 -96.7390 314° West 283 326 10,800  Level FlightAware
05:15PM 32.6690 -96.7910 315° West 284 327 10,800  Level FlightAware
05:16PM 32.7040 -96.8340 314° West 286 329 10,800  Level FlightAware
05:16PM 32.7330 -96.8690 315° West 280 322 10,800  Level FlightAware
05:17PM 32.7700 -96.9010 324° Northwest 252 290 10,800  Level FlightAware
05:17PM 32.7800 -96.9020 355° North 254 292 10,800 -600 Level FlightAware
05:18PM 32.8250 -96.9020 360° North 250 288 10,300 -1,260 Descending FlightAware
05:20PM 32.9690 -96.9050 359° North 247 284 7,500 -1,380 Descending FlightAware
05:20PM 32.9890 -96.9050 360° North 244 281 7,200 -1,200 Descending FlightAware
05:21PM 33.0310 -96.9050 360° North 239 275 6,400 -1,500 Descending FlightAware
05:21PM 33.0580 -96.9060 358° North 241 277 5,700 -1,560 Descending FlightAware
05:21PM 33.0910 -96.9070 359° North 242 278 5,000 -1,200 Descending FlightAware
05:22PM 33.1080 -96.9080 357° North 240 276 4,800 -960 Descending FlightAware
05:22PM 33.1180 -96.9130 337° Northwest 238 274 4,600 -1,440 Descending FlightAware
05:22PM 33.1310 -96.9350 305° West 228 262 4,100 -1,020 Descending FlightAware
05:23PM 33.1270 -96.9840 264° West 213 245 3,600 -780 Descending FlightAware
05:23PM 33.1220 -96.9990 248° West 204 235 3,400 -600 Descending FlightAware
05:23PM 33.1120 -97.0090 220° Southwest 193 222 3,300 -600 Descending FlightAware
05:24PM 33.0920 -97.0210 207° Southwest 185 213 3,000 -600 Descending FlightAware
05:24PM 33.0800 -97.0240 192° South 182 209 2,900 -420 Descending FlightAware
05:25PM 33.0550 -97.0250 182° South 174 200 2,700 -480 Descending FlightAware
05:25PM 33.0390 -97.0250 180° South 167 192 2,500 -600 Descending FlightAware
05:25PM 33.0160 -97.0250 180° South 160 184 2,200 -600 Descending FlightAware
05:26PM 32.9980 -97.0260 183° South 158 182 2,000 -540 Descending FlightAware
05:26PM 32.9850 -97.0260 180° South 149 171 1,800 -720 Descending FlightAware
05:27PM 32.9670 -97.0260 180° South 130 150 1,400 -480 Descending FlightAware
05:27PM 32.9520 -97.0260 180° South 130 150 1,400  Level FlightAware